createdAt,value
2023-03-04T00:03:44.438Z,49.42
2023-03-04T00:06:31.588Z,48.55
2023-03-04T00:09:18.724Z,50.53
2023-03-04T00:12:08.809Z,49.25
2023-03-04T00:14:55.892Z,45.17
2023-03-04T00:17:43.032Z,49.55
2023-03-04T00:20:30.109Z,50.63
2023-03-04T00:23:17.231Z,48.42
2023-03-04T00:26:04.414Z,48.85
2023-03-04T00:28:51.460Z,46.90
2023-03-04T00:31:38.693Z,46.67
2023-03-04T00:34:25.775Z,51.15
2023-03-04T00:37:12.821Z,47.42
2023-03-04T00:39:59.870Z,52.15
2023-03-04T00:42:46.928Z,52.17
2023-03-04T00:45:34.067Z,50.60
2023-03-04T00:48:21.173Z,47.83
2023-03-04T00:51:08.337Z,45.33
2023-03-04T00:53:55.436Z,44.25
2023-03-04T00:56:42.540Z,57.72
2023-03-04T00:59:29.570Z,48.28
2023-03-04T01:02:16.671Z,44.67
2023-03-04T01:05:04.349Z,51.72
2023-03-04T01:07:51.513Z,46.95
2023-03-04T01:10:38.545Z,46.78
2023-03-04T01:13:25.708Z,46.50
2023-03-04T01:16:13.124Z,53.17
2023-03-04T01:19:00.271Z,49.72
2023-03-04T01:21:47.465Z,54.88
2023-03-04T01:24:34.893Z,50.28
2023-03-04T01:27:21.999Z,69.50
2023-03-04T01:30:10.351Z,83.97
2023-03-04T01:32:57.496Z,93.38
2023-03-04T01:35:44.591Z,95.05
2023-03-04T01:38:31.708Z,110.05
2023-03-04T01:41:24.385Z,91.30
2023-03-04T01:44:12.554Z,104.45
2023-03-04T01:46:59.777Z,93.22
2023-03-04T01:49:54.733Z,106.43
2023-03-04T01:52:43.118Z,105.65
2023-03-04T01:55:30.780Z,99.30
2023-03-04T01:58:18.046Z,105.57
2023-03-04T02:01:05.092Z,118.38
2023-03-04T02:03:52.291Z,113.18
2023-03-04T02:06:41.254Z,114.22
2023-03-04T02:09:30.067Z,115.75
2023-03-04T02:12:18.811Z,121.38
2023-03-04T02:15:07.005Z,120.72
2023-03-04T02:17:54.243Z,121.68
2023-03-04T02:23:25.588Z,119.47
2023-03-04T02:26:18.775Z,121.85
2023-03-04T02:29:05.978Z,122.68
2023-03-04T02:31:54.601Z,117.13
2023-03-04T02:34:48.971Z,110.53
2023-03-04T02:37:36.074Z,114.55
2023-03-04T02:40:33.324Z,115.10
2023-03-04T02:43:20.547Z,107.95
2023-03-04T02:46:10.847Z,88.85
2023-03-04T02:48:58.072Z,94.68
2023-03-04T02:51:45.218Z,101.72
2023-03-04T02:54:32.656Z,102.88
2023-03-04T02:57:19.702Z,97.53
2023-03-04T03:00:07.644Z,95.75
2023-03-04T03:02:57.108Z,86.18
2023-03-04T03:05:44.638Z,83.80
2023-03-04T03:08:31.778Z,84.28
2023-03-04T03:11:18.807Z,85.88
2023-03-04T03:14:06.027Z,78.53
2023-03-04T03:16:53.202Z,81.40
2023-03-04T03:19:40.294Z,76.20
2023-03-04T03:22:27.367Z,81.20
2023-03-04T03:25:15.738Z,80.10
2023-03-04T03:28:02.872Z,74.88
2023-03-04T03:30:49.957Z,84.45
2023-03-04T03:33:37.103Z,85.85
2023-03-04T03:36:24.200Z,82.10
2023-03-04T03:39:11.498Z,81.43
2023-03-04T03:41:58.519Z,82.88
2023-03-04T03:44:45.577Z,73.85
2023-03-04T03:47:32.664Z,81.28
2023-03-04T03:50:19.767Z,78.93
2023-03-04T03:53:06.784Z,76.78
2023-03-04T03:55:53.847Z,73.85
2023-03-04T03:58:40.942Z,74.13
2023-03-04T04:01:28.077Z,75.78
2023-03-04T04:04:15.227Z,76.43
2023-03-04T04:07:02.615Z,83.30
2023-03-04T04:09:49.705Z,74.05
2023-03-04T04:12:36.788Z,74.18
2023-03-04T04:15:24.006Z,74.90
2023-03-04T04:18:11.066Z,75.93
2023-03-04T04:20:58.184Z,79.03
2023-03-04T04:23:45.257Z,70.53
2023-03-04T04:26:32.314Z,75.70
2023-03-04T04:29:19.605Z,79.25
2023-03-04T04:32:07.389Z,80.80
2023-03-04T04:34:54.532Z,78.55
2023-03-04T04:37:41.572Z,79.40
2023-03-04T04:40:28.643Z,81.80
2023-03-04T04:43:15.713Z,72.78
2023-03-04T04:46:02.812Z,69.90
2023-03-04T04:48:50.327Z,73.43
2023-03-04T04:51:38.905Z,75.63
2023-03-04T04:54:26.030Z,72.18
2023-03-04T04:57:13.128Z,78.20
2023-03-04T05:00:00.338Z,82.03
2023-03-04T05:02:48.002Z,74.97
2023-03-04T05:05:35.063Z,85.32
2023-03-04T05:08:22.141Z,81.38
2023-03-04T05:11:09.265Z,78.03
2023-03-04T05:13:56.468Z,76.85
2023-03-04T05:16:43.501Z,80.65
2023-03-04T05:19:30.634Z,78.40
2023-03-04T05:22:17.770Z,80.88
2023-03-04T05:25:05.734Z,81.80
2023-03-04T05:27:52.806Z,73.40
2023-03-04T05:30:41.421Z,81.68
2023-03-04T05:33:28.547Z,78.95
2023-03-04T05:36:15.706Z,74.68
2023-03-04T05:39:02.901Z,87.43
2023-03-04T05:41:49.968Z,85.72
2023-03-04T05:44:37.042Z,83.25
2023-03-04T05:47:24.123Z,82.05
2023-03-04T05:50:11.873Z,82.43
2023-03-04T05:53:00.508Z,83.93
2023-03-04T05:55:47.983Z,80.60
2023-03-04T05:58:35.133Z,74.15
2023-03-04T06:01:22.175Z,79.32
2023-03-04T06:04:09.320Z,75.05
2023-03-04T06:06:56.427Z,81.55
2023-03-04T06:09:45.332Z,79.80
2023-03-04T06:12:32.415Z,71.68
2023-03-04T06:15:19.598Z,65.22
2023-03-04T06:18:07.861Z,85.82
2023-03-04T06:20:59.153Z,72.18
2023-03-04T06:23:47.205Z,75.43
2023-03-04T06:26:34.290Z,78.45
2023-03-04T06:29:21.507Z,82.20
2023-03-04T06:32:08.600Z,84.25
2023-03-04T06:34:55.814Z,73.05
2023-03-04T06:37:44.010Z,80.53
2023-03-04T06:40:31.061Z,78.10
2023-03-04T06:43:18.731Z,78.15
2023-03-04T06:46:07.775Z,75.25
2023-03-04T06:48:54.912Z,74.57
2023-03-04T06:51:42.016Z,80.70
2023-03-04T06:54:29.798Z,77.50
2023-03-04T06:57:16.877Z,76.18
2023-03-04T07:00:04.541Z,85.28
2023-03-04T07:02:55.104Z,74.20
2023-03-04T07:05:43.590Z,78.47
2023-03-04T07:08:30.654Z,74.82
2023-03-04T07:11:20.248Z,76.63
2023-03-04T07:14:07.296Z,77.20
2023-03-04T07:16:54.683Z,68.43
2023-03-04T07:19:42.084Z,74.35
2023-03-04T07:22:29.375Z,76.65
2023-03-04T07:25:18.127Z,69.47
2023-03-04T07:28:05.216Z,72.05
2023-03-04T07:30:52.323Z,75.00
2023-03-04T07:33:39.592Z,75.38
2023-03-04T07:36:27.050Z,70.22
2023-03-04T07:39:14.294Z,73.03
2023-03-04T07:42:01.346Z,77.07
2023-03-04T07:44:48.390Z,73.70
2023-03-04T07:47:35.494Z,74.60
2023-03-04T07:50:23.494Z,70.75
2023-03-04T07:53:10.596Z,76.18
2023-03-04T07:55:57.768Z,72.28
2023-03-04T07:58:45.329Z,71.82
2023-03-04T08:01:37.406Z,76.75
2023-03-04T08:04:24.535Z,74.75
2023-03-04T08:07:11.618Z,82.15
2023-03-04T08:09:58.724Z,73.47
2023-03-04T08:12:46.890Z,79.30
2023-03-04T08:15:35.359Z,70.43
2023-03-04T08:18:22.534Z,72.72
2023-03-04T08:21:11.203Z,64.20
2023-03-04T08:24:02.573Z,64.80
2023-03-04T08:26:50.814Z,69.82
2023-03-04T08:29:37.991Z,64.07
2023-03-04T08:32:25.176Z,67.72
2023-03-04T08:35:12.354Z,58.85
2023-03-04T08:38:02.346Z,62.03
2023-03-04T08:40:56.991Z,58.30
2023-03-04T08:43:44.257Z,54.78
2023-03-04T08:46:31.608Z,55.97
2023-03-04T08:49:18.801Z,50.97
2023-03-04T08:52:06.788Z,56.13
2023-03-04T08:54:54.136Z,47.28
2023-03-04T08:57:41.263Z,50.00
2023-03-04T09:00:28.386Z,50.83
2023-03-04T09:03:16.647Z,44.60
2023-03-04T09:06:04.762Z,45.65
2023-03-04T09:08:51.929Z,46.47
2023-03-04T09:11:42.016Z,41.60
2023-03-04T09:17:16.096Z,38.47
2023-03-04T09:20:04.656Z,33.83
2023-03-04T09:22:51.751Z,35.30
2023-03-04T09:25:39.671Z,44.60
2023-03-04T09:28:27.008Z,29.55
2023-03-04T09:31:15.222Z,27.52
2023-03-04T09:34:02.358Z,29.38
2023-03-04T09:36:49.452Z,27.13
2023-03-04T09:39:36.988Z,29.20
2023-03-04T09:42:55.930Z,28.85
2023-03-04T09:46:00.249Z,32.58
2023-03-04T09:48:51.066Z,27.50
2023-03-04T09:51:44.973Z,26.98
2023-03-04T09:54:45.325Z,30.02
2023-03-04T09:57:46.514Z,25.63
2023-03-04T10:00:44.232Z,26.08
2023-03-04T10:03:47.909Z,27.33
2023-03-04T10:06:39.366Z,28.38
2023-03-04T10:09:30.381Z,27.02
2023-03-04T10:12:22.304Z,27.92
2023-03-04T10:15:44.177Z,29.80
2023-03-04T10:18:41.381Z,26.25
2023-03-04T10:21:38.385Z,26.73
2023-03-04T10:24:29.462Z,24.63
2023-03-04T10:27:20.086Z,23.60
2023-03-04T10:30:18.965Z,22.80
2023-03-04T10:33:20.145Z,22.10
2023-03-04T10:36:31.750Z,21.60
2023-03-04T10:39:29.825Z,21.80
2023-03-04T10:42:17.011Z,25.85
2023-03-04T10:45:04.566Z,28.15
2023-03-04T10:47:55.948Z,35.05
2023-03-04T10:50:43.288Z,29.02
2023-03-04T10:53:34.101Z,26.02
2023-03-04T10:56:45.628Z,236.50
2023-03-04T10:59:40.985Z,62.17
2023-03-04T11:02:36.405Z,59.88
2023-03-04T11:05:25.858Z,24.63
2023-03-04T11:08:22.427Z,29.67
2023-03-04T11:11:34.700Z,29.95
2023-03-04T11:14:21.736Z,27.05
2023-03-04T11:17:23.780Z,25.40
2023-03-04T11:20:17.468Z,22.65
2023-03-04T11:23:11.775Z,28.73
2023-03-04T11:26:29.076Z,24.33
2023-03-04T11:29:26.613Z,26.33
2023-03-04T11:32:28.091Z,25.45
2023-03-04T11:35:38.700Z,31.45
2023-03-04T11:38:50.167Z,38.20
2023-03-04T11:41:41.854Z,25.20
2023-03-04T11:44:30.881Z,59.17
2023-03-04T11:47:45.891Z,34.75
2023-03-04T11:50:49.044Z,21.80
2023-03-04T11:53:59.803Z,25.80
2023-03-04T11:56:53.847Z,107.47
2023-03-04T12:00:08.862Z,26.58
2023-03-04T12:03:14.916Z,33.15
2023-03-04T12:06:34.438Z,60.75
2023-03-04T12:09:30.115Z,32.42
2023-03-04T12:12:27.257Z,25.35
2023-03-04T12:15:55.131Z,33.28
2023-03-04T12:18:57.619Z,23.40
2023-03-04T12:22:07.070Z,30.38
2023-03-04T12:25:17.998Z,28.90
2023-03-04T12:28:27.973Z,25.63
2023-03-04T12:31:34.054Z,26.30
2023-03-04T12:34:52.830Z,24.58
2023-03-04T12:38:05.024Z,21.05
2023-03-04T12:40:55.129Z,36.47
2023-03-04T12:46:44.433Z,28.05
2023-03-04T12:50:02.646Z,25.90
2023-03-04T12:53:24.138Z,27.67
2023-03-04T12:56:33.964Z,28.65
2023-03-04T12:59:24.172Z,83.75
2023-03-04T13:02:13.877Z,28.10
2023-03-04T13:05:26.807Z,26.60
2023-03-04T13:08:19.701Z,27.50
2023-03-04T13:11:28.569Z,31.10
2023-03-04T13:14:17.515Z,49.83
2023-03-04T13:17:43.659Z,27.80
2023-03-04T13:20:31.053Z,36.58
2023-03-04T13:23:29.921Z,81.80
2023-03-04T13:26:21.116Z,25.48
2023-03-04T13:29:14.281Z,36.38
2023-03-04T13:32:10.709Z,23.52
2023-03-04T13:34:58.309Z,46.25
2023-03-04T13:37:58.294Z,26.55
2023-03-04T13:43:44.009Z,22.58
2023-03-04T13:46:42.852Z,24.90
2023-03-04T13:49:30.074Z,23.15
2023-03-04T13:52:44.401Z,24.38
2023-03-04T13:55:41.195Z,27.77
2023-03-04T13:58:28.397Z,25.73
2023-03-04T14:01:28.777Z,26.73
2023-03-04T14:04:16.222Z,24.75
2023-03-04T14:07:37.313Z,26.63
2023-03-04T14:10:25.314Z,25.77
2023-03-04T14:13:12.480Z,24.98
2023-03-04T14:16:00.562Z,24.85
2023-03-04T14:19:01.306Z,28.60
2023-03-04T14:21:48.518Z,26.40
2023-03-04T14:24:35.781Z,31.08
2023-03-04T14:27:23.028Z,30.95
2023-03-04T14:30:28.974Z,24.55
2023-03-04T14:33:25.620Z,24.48
2023-03-04T14:36:24.359Z,25.23
2023-03-04T14:39:18.260Z,25.83
2023-03-04T14:42:11.204Z,23.35
2023-03-04T14:45:00.851Z,26.02
2023-03-04T14:47:49.099Z,28.77
2023-03-04T14:50:37.782Z,27.98
2023-03-04T14:53:34.013Z,25.52
2023-03-04T14:56:29.265Z,24.17
2023-03-04T14:59:19.529Z,21.73
2023-03-04T15:02:42.013Z,22.42
2023-03-04T15:05:32.732Z,24.10
2023-03-04T15:08:29.434Z,26.85
2023-03-04T15:11:27.336Z,24.55
2023-03-04T15:14:50.271Z,23.58
2023-03-04T15:17:42.895Z,27.30
2023-03-04T15:20:32.184Z,24.95
2023-03-04T15:23:19.365Z,28.20
2023-03-04T15:26:10.224Z,23.35
2023-03-04T15:28:57.583Z,22.98
2023-03-04T15:31:48.403Z,21.77
2023-03-04T15:34:35.662Z,21.88
2023-03-04T15:37:27.610Z,23.25
2023-03-04T15:40:19.050Z,23.30
2023-03-04T15:43:07.716Z,20.83
2023-03-04T15:45:55.094Z,23.35
2023-03-04T15:48:42.433Z,23.80
2023-03-04T15:51:30.633Z,22.40
2023-03-04T15:54:18.104Z,22.38
2023-03-04T15:57:17.415Z,23.67
2023-03-04T16:00:05.299Z,22.33
2023-03-04T16:02:52.571Z,23.80
2023-03-04T16:05:40.039Z,21.02
2023-03-04T16:08:27.957Z,24.73
2023-03-04T16:11:22.161Z,21.45
2023-03-04T16:14:11.600Z,24.45
2023-03-04T16:16:59.112Z,22.52
2023-03-04T16:19:46.953Z,21.60
2023-03-04T16:22:34.494Z,20.25
2023-03-04T16:25:23.075Z,21.15
2023-03-04T16:28:12.872Z,24.70
2023-03-04T16:31:00.249Z,20.73
2023-03-04T16:33:48.410Z,21.60
2023-03-04T16:36:36.217Z,21.63
2023-03-04T16:39:26.135Z,20.02
2023-03-04T16:42:20.043Z,19.83
2023-03-04T16:45:16.202Z,17.65
2023-03-04T16:48:03.566Z,15.88
2023-03-04T16:50:51.867Z,14.02
2023-03-04T16:53:40.764Z,13.73
2023-03-04T16:56:29.755Z,16.30
2023-03-04T16:59:17.736Z,14.95
2023-03-04T17:02:13.469Z,14.75
2023-03-04T17:05:01.120Z,13.10
2023-03-04T17:07:48.256Z,12.52
2023-03-04T17:10:35.594Z,14.05
2023-03-04T17:13:23.252Z,15.77
2023-03-04T17:16:13.151Z,13.18
2023-03-04T17:21:48.129Z,16.00
2023-03-04T17:24:35.498Z,14.68
2023-03-04T17:27:23.201Z,14.73
2023-03-04T17:30:13.326Z,14.27
2023-03-04T17:35:49.074Z,16.05
2023-03-04T17:38:45.667Z,15.30
2023-03-04T17:41:36.024Z,15.50
2023-03-04T17:44:24.059Z,16.63
2023-03-04T17:47:12.144Z,17.35
2023-03-04T17:49:59.789Z,17.77
2023-03-04T17:52:48.652Z,16.77
2023-03-04T17:55:36.540Z,17.65
2023-03-04T17:58:25.266Z,22.08
2023-03-04T18:01:20.924Z,21.15
2023-03-04T18:04:09.198Z,17.98
2023-03-04T18:06:56.826Z,21.17
2023-03-04T18:09:44.958Z,20.05
2023-03-04T18:12:33.228Z,23.20
2023-03-04T18:15:21.001Z,19.27
2023-03-04T18:18:08.990Z,18.05
2023-03-04T18:21:02.138Z,18.27
2023-03-04T18:23:49.933Z,18.52
2023-03-04T18:26:37.998Z,20.05
2023-03-04T18:29:26.074Z,19.92
2023-03-04T18:32:14.260Z,17.92
2023-03-04T18:35:02.412Z,19.00
2023-03-04T18:37:50.809Z,19.80
2023-03-04T18:40:43.897Z,20.40
2023-03-04T18:43:31.619Z,20.25
2023-03-04T18:46:29.952Z,16.30
2023-03-04T18:49:22.320Z,21.95
2023-03-04T18:52:10.136Z,20.90
2023-03-04T18:54:59.414Z,22.27
2023-03-04T18:57:51.835Z,20.13
2023-03-04T19:00:40.004Z,21.05
2023-03-04T19:03:28.985Z,21.25
2023-03-04T19:06:17.494Z,23.58
2023-03-04T19:09:07.094Z,20.30
2023-03-04T19:11:55.235Z,24.05
2023-03-04T19:14:43.180Z,21.98
2023-03-04T19:17:33.266Z,20.35
2023-03-04T19:20:21.402Z,22.17
2023-03-04T19:23:10.867Z,22.38
2023-03-04T19:26:00.306Z,23.67
2023-03-04T19:28:48.617Z,24.35
2023-03-04T19:31:41.033Z,21.05
2023-03-04T19:34:29.545Z,21.42
2023-03-04T19:37:18.556Z,23.73
2023-03-04T19:40:08.016Z,22.65
2023-03-04T19:42:56.968Z,22.27
2023-03-04T19:45:53.642Z,21.95
2023-03-04T19:48:43.288Z,25.45
2023-03-04T19:51:33.216Z,27.50
2023-03-04T19:54:20.702Z,25.65
2023-03-04T19:57:08.818Z,25.73
2023-03-04T19:59:56.564Z,22.60
2023-03-04T20:02:46.051Z,27.42
2023-03-04T20:05:35.462Z,22.60
2023-03-04T20:08:24.424Z,24.55
2023-03-04T20:11:15.156Z,26.40
2023-03-04T20:14:05.034Z,24.40
2023-03-04T20:16:53.227Z,23.23
2023-03-04T20:19:41.383Z,22.15
2023-03-04T20:22:29.743Z,24.98
2023-03-04T20:25:19.134Z,25.58
2023-03-04T20:28:07.316Z,28.30
2023-03-04T20:31:09.546Z,23.02
2023-03-04T20:34:02.181Z,27.20
2023-03-04T20:36:50.267Z,29.98
2023-03-04T20:39:38.469Z,26.30
2023-03-04T20:42:26.843Z,27.00
2023-03-04T20:45:16.255Z,25.52
2023-03-04T20:48:04.613Z,24.35
2023-03-04T20:50:52.436Z,26.88
2023-03-04T20:53:40.352Z,28.17
2023-03-04T20:56:28.758Z,29.27
2023-03-04T20:59:18.186Z,27.40
2023-03-04T21:02:07.817Z,28.40
2023-03-04T21:04:56.019Z,26.20
2023-03-04T21:07:44.198Z,31.48
2023-03-04T21:10:35.813Z,29.73
2023-03-04T21:13:26.795Z,29.50
2023-03-04T21:16:16.663Z,26.67
2023-03-04T21:19:06.521Z,29.77
2023-03-04T21:21:56.694Z,27.30
2023-03-04T21:24:45.870Z,29.52
2023-03-04T21:27:33.406Z,29.75
2023-03-04T21:30:21.393Z,24.65
2023-03-04T21:33:18.310Z,31.13
2023-03-04T21:36:06.467Z,26.95
2023-03-04T21:38:54.634Z,27.98
2023-03-04T21:41:42.647Z,30.92
2023-03-04T21:44:45.017Z,28.67
2023-03-04T21:47:35.861Z,29.92
2023-03-04T21:50:25.843Z,28.02
2023-03-04T21:53:13.676Z,30.20
2023-03-04T21:56:01.469Z,31.02
2023-03-04T21:58:49.023Z,30.27
2023-03-04T22:01:36.652Z,32.67
2023-03-04T22:04:24.107Z,27.90
2023-03-04T22:07:11.167Z,31.58
2023-03-04T22:09:59.625Z,30.58
2023-03-04T22:12:46.735Z,29.15
2023-03-04T22:15:33.936Z,29.77
2023-03-04T22:18:21.066Z,35.90
2023-03-04T22:21:13.369Z,30.15
2023-03-04T22:24:00.547Z,25.45
2023-03-04T22:26:47.734Z,34.33
2023-03-04T22:29:37.123Z,30.17
2023-03-04T22:32:24.315Z,30.85
2023-03-04T22:35:11.829Z,29.90
2023-03-04T22:37:58.947Z,32.42
2023-03-04T22:40:46.006Z,27.92
2023-03-04T22:43:33.118Z,30.20
2023-03-04T22:46:25.874Z,28.17
2023-03-04T22:49:14.216Z,26.85
2023-03-04T22:52:01.429Z,26.52
2023-03-04T22:54:48.647Z,27.70
2023-03-04T22:57:35.694Z,31.08
2023-03-04T23:00:26.276Z,31.83
2023-03-04T23:03:13.421Z,30.02
2023-03-04T23:06:02.938Z,26.40
2023-03-04T23:08:51.323Z,25.33
2023-03-04T23:11:39.662Z,24.40
2023-03-04T23:14:26.803Z,29.23
2023-03-04T23:17:14.111Z,25.23
2023-03-04T23:20:01.177Z,30.05
2023-03-04T23:22:48.993Z,30.00
2023-03-04T23:25:37.076Z,25.50
2023-03-04T23:28:24.170Z,24.38
2023-03-04T23:31:14.951Z,30.10
2023-03-04T23:34:03.656Z,25.77
2023-03-04T23:36:50.749Z,28.95
2023-03-04T23:39:37.815Z,27.50
2023-03-04T23:42:24.956Z,28.63
2023-03-04T23:45:12.447Z,25.25
2023-03-04T23:47:59.596Z,23.90
2023-03-04T23:50:54.075Z,26.67
2023-03-04T23:53:41.340Z,25.13
2023-03-04T23:56:30.613Z,26.50
2023-03-04T23:59:17.798Z,24.07
